createdAt,value
2018-11-25T00:01:57.924Z,5.00
2018-11-25T00:04:26.280Z,5.00
2018-11-25T00:06:54.594Z,5.00
2018-11-25T00:09:22.946Z,5.00
2018-11-25T00:11:51.277Z,5.00
2018-11-25T00:14:19.660Z,5.00
2018-11-25T00:16:48.006Z,5.00
2018-11-25T00:19:16.331Z,4.90
2018-11-25T00:21:44.699Z,4.90
2018-11-25T00:24:13.007Z,5.00
2018-11-25T00:26:41.415Z,5.00
2018-11-25T00:29:09.698Z,5.00
2018-11-25T00:31:38.030Z,5.10
2018-11-25T00:34:06.316Z,5.10
2018-11-25T00:36:34.619Z,5.10
2018-11-25T00:39:03.133Z,5.10
2018-11-25T00:41:31.432Z,5.10
2018-11-25T00:43:59.742Z,5.10
2018-11-25T00:46:28.131Z,5.10
2018-11-25T00:48:56.417Z,5.00
2018-11-25T00:51:24.761Z,5.00
2018-11-25T00:53:53.136Z,4.90
2018-11-25T00:56:21.438Z,5.00
2018-11-25T00:58:49.769Z,5.00
2018-11-25T01:01:19.069Z,5.00
2018-11-25T01:03:47.366Z,5.00
2018-11-25T01:06:15.667Z,5.00
2018-11-25T01:08:44.006Z,5.10
2018-11-25T01:11:12.294Z,5.10
2018-11-25T01:13:40.589Z,5.10
2018-11-25T01:16:08.875Z,5.20
2018-11-25T01:18:37.178Z,5.30
2018-11-25T01:21:05.978Z,5.30
2018-11-25T01:23:34.286Z,5.30
2018-11-25T01:26:02.581Z,5.30
2018-11-25T01:28:30.856Z,5.30
2018-11-25T01:30:59.168Z,5.40
2018-11-25T01:33:27.504Z,5.30
2018-11-25T01:35:55.784Z,5.30
2018-11-25T01:38:24.892Z,5.40
2018-11-25T01:40:53.229Z,5.40
2018-11-25T01:43:21.541Z,5.50
2018-11-25T01:45:49.921Z,5.50
2018-11-25T01:48:18.227Z,5.50
2018-11-25T01:50:46.604Z,5.50
2018-11-25T01:53:14.956Z,5.50
2018-11-25T01:55:43.273Z,5.50
2018-11-25T01:58:11.665Z,5.50
2018-11-25T02:00:39.992Z,5.40
2018-11-25T02:03:08.312Z,5.40
2018-11-25T02:05:36.617Z,5.30
2018-11-25T02:08:04.934Z,5.30
2018-11-25T02:10:33.206Z,5.20
2018-11-25T02:13:01.712Z,5.20
2018-11-25T02:15:30.024Z,5.20
2018-11-25T02:17:58.309Z,5.30
2018-11-25T02:20:26.693Z,5.30
2018-11-25T02:22:55.873Z,5.30
2018-11-25T02:25:24.215Z,5.30
2018-11-25T02:27:52.515Z,5.30
2018-11-25T02:30:20.820Z,5.20
2018-11-25T02:32:49.112Z,5.20
2018-11-25T02:35:17.755Z,5.20
2018-11-25T02:37:46.138Z,5.20
2018-11-25T02:40:16.251Z,5.10
2018-11-25T02:42:44.693Z,5.10
2018-11-25T02:45:15.845Z,5.10
2018-11-25T02:47:44.241Z,5.00
2018-11-25T02:50:32.466Z,5.00
2018-11-25T02:53:05.196Z,5.00
2018-11-25T02:55:33.941Z,4.90
2018-11-25T02:58:02.260Z,4.90
2018-11-25T03:00:30.610Z,4.90
2018-11-25T03:02:58.987Z,4.90
2018-11-25T03:05:27.410Z,5.00
2018-11-25T03:07:55.743Z,5.00
2018-11-25T03:10:24.057Z,5.00
2018-11-25T03:12:52.718Z,5.00
2018-11-25T03:15:21.083Z,5.00
2018-11-25T03:17:49.388Z,5.10
2018-11-25T03:20:18.454Z,5.10
2018-11-25T03:22:46.834Z,5.10
2018-11-25T03:25:17.194Z,5.10
2018-11-25T03:27:45.608Z,5.00
2018-11-25T03:30:15.944Z,5.00
2018-11-25T03:32:45.119Z,5.00
2018-11-25T03:35:13.930Z,5.00
2018-11-25T03:37:42.197Z,4.90
2018-11-25T03:40:12.607Z,4.90
2018-11-25T03:42:40.942Z,4.90
2018-11-25T03:45:11.708Z,4.80
2018-11-25T03:47:40.011Z,4.80
2018-11-25T03:50:09.363Z,4.80
2018-11-25T03:52:37.789Z,4.80
2018-11-25T03:55:14.391Z,4.80
2018-11-25T03:57:42.793Z,4.70
2018-11-25T04:00:15.401Z,4.80
2018-11-25T04:02:43.754Z,4.70
2018-11-25T04:05:13.368Z,4.70
2018-11-25T04:07:41.706Z,4.70
2018-11-25T04:10:11.303Z,4.80
2018-11-25T04:12:39.921Z,4.80
2018-11-25T04:18:11.744Z,4.80
2018-11-25T04:20:40.037Z,4.80
2018-11-25T04:23:08.328Z,4.80
2018-11-25T04:25:36.625Z,4.80
2018-11-25T04:28:05.050Z,4.80
2018-11-25T04:30:33.354Z,4.80
2018-11-25T04:33:01.649Z,4.80
2018-11-25T04:35:29.948Z,4.80
2018-11-25T04:37:58.227Z,4.70
2018-11-25T04:40:26.529Z,4.70
2018-11-25T04:42:54.832Z,4.60
2018-11-25T04:45:23.102Z,4.60
2018-11-25T04:47:51.385Z,4.60
2018-11-25T04:50:20.729Z,4.50
2018-11-25T04:52:49.237Z,4.60
2018-11-25T04:55:17.559Z,4.60
2018-11-25T04:57:53.341Z,4.60
2018-11-25T05:00:21.771Z,4.60
2018-11-25T05:02:50.934Z,4.50
2018-11-25T05:05:19.397Z,4.30
2018-11-25T05:07:48.113Z,4.20
2018-11-25T05:10:17.513Z,4.20
2018-11-25T05:12:46.245Z,4.20
2018-11-25T05:15:18.446Z,4.20
2018-11-25T05:17:46.793Z,4.10
2018-11-25T05:20:15.806Z,4.10
2018-11-25T05:22:44.193Z,4.10
2018-11-25T05:25:14.457Z,4.10
2018-11-25T05:27:42.778Z,4.10
2018-11-25T05:30:12.341Z,4.10
2018-11-25T05:32:40.744Z,4.00
2018-11-25T05:35:10.287Z,4.00
2018-11-25T05:37:38.600Z,3.90
2018-11-25T05:40:09.246Z,3.90
2018-11-25T05:42:37.525Z,3.90
2018-11-25T05:45:08.350Z,4.00
2018-11-25T05:47:36.679Z,4.00
2018-11-25T05:50:05.943Z,4.00
2018-11-25T05:52:34.223Z,3.90
2018-11-25T05:55:02.519Z,3.90
2018-11-25T05:57:30.916Z,3.80
2018-11-25T05:59:59.287Z,3.80
2018-11-25T06:02:27.704Z,3.70
2018-11-25T06:04:55.994Z,3.70
2018-11-25T06:07:24.371Z,3.70
2018-11-25T06:09:52.674Z,3.80
2018-11-25T06:12:20.960Z,3.80
2018-11-25T06:14:49.220Z,3.90
2018-11-25T06:17:17.597Z,3.90
2018-11-25T06:19:46.055Z,3.90
2018-11-25T06:22:14.470Z,4.00
2018-11-25T06:24:42.736Z,3.90
2018-11-25T06:27:11.089Z,3.90
2018-11-25T06:29:39.492Z,3.90
2018-11-25T06:32:07.921Z,3.90
2018-11-25T06:34:36.249Z,3.90
2018-11-25T06:37:04.610Z,3.90
2018-11-25T06:39:32.910Z,3.90
2018-11-25T06:42:01.209Z,4.00
2018-11-25T06:44:29.603Z,3.90
2018-11-25T06:46:58.561Z,3.90
2018-11-25T06:49:27.017Z,3.90
2018-11-25T06:51:55.366Z,3.90
2018-11-25T06:54:23.661Z,3.90
2018-11-25T06:56:52.085Z,3.90
2018-11-25T06:59:20.365Z,3.90
2018-11-25T07:01:48.803Z,3.90
2018-11-25T07:04:17.115Z,3.90
2018-11-25T07:06:45.710Z,3.90
2018-11-25T07:09:14.073Z,4.00
2018-11-25T07:11:42.457Z,4.00
2018-11-25T07:14:10.802Z,3.90
2018-11-25T07:16:39.062Z,3.90
2018-11-25T07:19:07.359Z,3.90
2018-11-25T07:21:35.717Z,4.00
2018-11-25T07:24:04.604Z,4.00
2018-11-25T07:26:32.915Z,4.00
2018-11-25T07:29:01.252Z,3.90
2018-11-25T07:31:29.570Z,3.90
2018-11-25T07:33:57.898Z,3.90
2018-11-25T07:36:26.243Z,3.90
2018-11-25T07:38:54.963Z,3.80
2018-11-25T07:41:23.273Z,3.80
2018-11-25T07:43:51.595Z,3.80
2018-11-25T07:46:19.886Z,3.80
2018-11-25T07:48:48.194Z,3.80
2018-11-25T07:51:16.592Z,3.80
2018-11-25T07:53:45.124Z,3.80
2018-11-25T07:56:13.554Z,3.80
2018-11-25T07:58:41.889Z,3.80
2018-11-25T08:01:10.328Z,3.80
2018-11-25T08:03:38.724Z,3.70
2018-11-25T08:06:07.098Z,3.70
2018-11-25T08:08:35.404Z,3.70
2018-11-25T08:11:03.799Z,3.70
2018-11-25T08:13:32.186Z,3.70
2018-11-25T08:16:00.578Z,3.80
2018-11-25T08:18:28.964Z,3.70
2018-11-25T08:20:57.379Z,3.70
2018-11-25T08:23:25.753Z,3.70
2018-11-25T08:25:54.177Z,3.70
2018-11-25T08:28:22.560Z,3.80
2018-11-25T08:30:50.942Z,3.80
2018-11-25T08:33:19.364Z,3.80
2018-11-25T08:35:47.745Z,3.80
2018-11-25T08:38:16.073Z,3.80
2018-11-25T08:40:44.433Z,3.70
2018-11-25T08:43:12.869Z,3.80
2018-11-25T08:45:41.620Z,3.70
2018-11-25T08:48:10.026Z,3.70
2018-11-25T08:50:38.549Z,3.80
2018-11-25T08:53:06.971Z,3.80
2018-11-25T08:55:42.016Z,3.80
2018-11-25T08:58:16.661Z,3.70
2018-11-25T09:00:46.098Z,3.60
2018-11-25T09:03:14.487Z,3.60
2018-11-25T09:05:42.928Z,3.50
2018-11-25T09:08:31.095Z,3.50
2018-11-25T09:10:59.532Z,3.50
2018-11-25T09:13:27.942Z,3.50
2018-11-25T09:16:02.822Z,3.60
2018-11-25T09:18:33.181Z,3.60
2018-11-25T09:21:01.582Z,3.60
2018-11-25T09:23:30.011Z,3.70
2018-11-25T09:25:58.362Z,3.80
2018-11-25T09:28:26.822Z,3.90
2018-11-25T09:30:55.173Z,3.90
2018-11-25T09:33:23.523Z,3.90
2018-11-25T09:35:51.934Z,3.90
2018-11-25T09:38:20.342Z,3.80
2018-11-25T09:40:51.274Z,3.80
2018-11-25T09:43:21.633Z,3.90
2018-11-25T09:45:54.276Z,3.90
2018-11-25T09:48:22.634Z,4.00
2018-11-25T09:50:50.994Z,4.00
2018-11-25T09:53:19.360Z,4.10
2018-11-25T09:55:48.796Z,4.20
2018-11-25T09:58:25.431Z,4.20
2018-11-25T10:00:50.745Z,4.20
2018-11-25T10:03:19.146Z,4.20
2018-11-25T10:05:48.676Z,4.10
2018-11-25T10:08:18.069Z,4.20
2018-11-25T10:10:52.604Z,4.20
2018-11-25T10:13:16.257Z,4.20
2018-11-25T10:15:47.137Z,4.20
2018-11-25T10:18:15.530Z,4.20
2018-11-25T10:20:55.738Z,4.30
2018-11-25T10:23:26.133Z,4.30
2018-11-25T10:25:55.857Z,4.40
2018-11-25T10:28:28.377Z,4.50
2018-11-25T10:30:57.850Z,4.50
2018-11-25T10:33:26.200Z,4.50
2018-11-25T10:35:59.472Z,4.50
2018-11-25T10:38:27.869Z,4.60
2018-11-25T10:41:02.078Z,4.70
2018-11-25T10:43:34.296Z,4.70
2018-11-25T10:46:03.685Z,4.70
2018-11-25T10:48:33.045Z,4.70
2018-11-25T10:51:01.516Z,4.80
2018-11-25T10:53:29.923Z,4.80
2018-11-25T10:55:58.352Z,4.80
2018-11-25T10:58:26.728Z,4.90
2018-11-25T11:01:00.365Z,5.00
2018-11-25T11:03:34.128Z,5.10
2018-11-25T11:06:07.837Z,5.20
2018-11-25T11:08:39.324Z,5.30
2018-11-25T11:11:11.682Z,5.40
2018-11-25T11:13:40.169Z,5.40
2018-11-25T11:16:08.583Z,5.40
2018-11-25T11:18:36.934Z,5.40
2018-11-25T11:21:05.748Z,5.40
2018-11-25T11:23:36.086Z,5.50
2018-11-25T11:26:07.021Z,5.60
2018-11-25T11:28:32.820Z,5.60
2018-11-25T11:31:01.225Z,5.70
2018-11-25T11:33:29.976Z,5.70
2018-11-25T11:35:59.358Z,5.80
2018-11-25T11:38:27.781Z,5.80
2018-11-25T11:40:57.223Z,5.90
2018-11-25T11:43:25.584Z,5.80
2018-11-25T11:45:57.840Z,5.80
2018-11-25T11:48:27.225Z,5.70
2018-11-25T11:50:55.606Z,5.70
2018-11-25T11:53:23.977Z,5.70
2018-11-25T11:55:52.415Z,5.70
2018-11-25T11:58:20.849Z,5.80
2018-11-25T12:00:49.243Z,5.90
2018-11-25T12:03:26.141Z,5.90
2018-11-25T12:05:46.010Z,6.00
2018-11-25T12:08:14.353Z,6.10
2018-11-25T12:10:42.850Z,6.10
2018-11-25T12:13:16.269Z,6.10
2018-11-25T12:15:45.307Z,6.10
2018-11-25T12:18:13.690Z,6.10
2018-11-25T12:20:43.083Z,6.10
2018-11-25T12:23:23.265Z,6.20
2018-11-25T12:25:51.634Z,6.30
2018-11-25T12:28:21.032Z,6.40
2018-11-25T12:30:49.442Z,6.40
2018-11-25T12:33:18.942Z,6.40
2018-11-25T12:38:38.888Z,6.50
2018-11-25T12:41:17.009Z,6.60
2018-11-25T12:43:46.390Z,6.60
2018-11-25T12:46:24.363Z,6.70
2018-11-25T12:48:57.743Z,6.90
2018-11-25T12:51:33.700Z,7.00
2018-11-25T12:54:07.006Z,7.00
2018-11-25T12:56:37.300Z,7.00
2018-11-25T12:59:06.425Z,7.00
2018-11-25T13:01:42.006Z,7.00
2018-11-25T13:04:14.408Z,7.00
2018-11-25T13:06:42.726Z,7.00
2018-11-25T13:09:18.564Z,7.10
2018-11-25T13:11:52.255Z,7.00
2018-11-25T13:14:21.672Z,7.10
2018-11-25T13:17:02.770Z,7.00
2018-11-25T13:19:39.742Z,7.00
2018-11-25T13:22:09.920Z,7.00
2018-11-25T13:24:44.817Z,7.00
2018-11-25T13:27:16.145Z,7.00
2018-11-25T13:29:46.078Z,7.10
2018-11-25T13:32:14.435Z,7.10
2018-11-25T13:34:50.079Z,7.10
2018-11-25T13:37:27.097Z,7.10
2018-11-25T13:39:58.898Z,7.10
2018-11-25T13:42:33.862Z,7.00
2018-11-25T13:45:12.034Z,7.00
2018-11-25T13:47:42.404Z,7.10
2018-11-25T13:50:17.537Z,7.10
2018-11-25T13:52:47.895Z,7.00
2018-11-25T13:55:20.716Z,7.00
2018-11-25T13:57:51.086Z,7.00
2018-11-25T14:00:57.546Z,6.90
2018-11-25T14:03:43.860Z,6.90
2018-11-25T14:06:18.369Z,6.90
2018-11-25T14:08:51.786Z,6.80
2018-11-25T14:11:20.153Z,6.80
2018-11-25T14:13:59.304Z,6.80
2018-11-25T14:16:31.675Z,6.90
2018-11-25T14:19:02.055Z,6.80
2018-11-25T14:21:31.601Z,6.90
2018-11-25T14:24:20.986Z,6.80
2018-11-25T14:26:55.128Z,6.90
2018-11-25T14:29:24.461Z,6.90
2018-11-25T14:31:56.796Z,6.90
2018-11-25T14:34:25.245Z,6.80
2018-11-25T14:36:57.094Z,6.80
2018-11-25T14:39:25.418Z,6.90
2018-11-25T14:41:54.375Z,6.90
2018-11-25T14:44:23.865Z,6.90
2018-11-25T14:46:59.488Z,6.90
2018-11-25T14:49:28.371Z,6.90
2018-11-25T14:51:56.802Z,6.80
2018-11-25T14:54:26.628Z,6.80
2018-11-25T14:56:55.011Z,6.70
2018-11-25T14:59:24.972Z,6.70
2018-11-25T15:01:53.564Z,6.50
2018-11-25T15:04:23.064Z,6.50
2018-11-25T15:06:52.661Z,6.40
2018-11-25T15:09:21.128Z,6.30
2018-11-25T15:11:49.526Z,6.20
2018-11-25T15:14:17.920Z,6.20
2018-11-25T15:16:46.345Z,6.20
2018-11-25T15:19:14.666Z,6.10
2018-11-25T15:21:43.032Z,6.10
2018-11-25T15:24:11.453Z,6.00
2018-11-25T15:26:39.949Z,6.00
2018-11-25T15:29:08.269Z,5.90
2018-11-25T15:31:36.716Z,5.90
2018-11-25T15:34:05.254Z,5.80
2018-11-25T15:36:33.908Z,5.80
2018-11-25T15:39:02.352Z,5.80
2018-11-25T15:41:30.713Z,5.70
2018-11-25T15:43:59.125Z,5.70
2018-11-25T15:46:28.557Z,5.70
2018-11-25T15:49:01.007Z,5.70
2018-11-25T15:51:29.380Z,5.60
2018-11-25T15:53:58.854Z,5.60
2018-11-25T15:56:28.283Z,5.50
2018-11-25T15:59:00.649Z,5.50
2018-11-25T16:01:29.130Z,5.50
2018-11-25T16:03:57.509Z,5.60
2018-11-25T16:06:28.290Z,5.60
2018-11-25T16:09:08.904Z,5.60
2018-11-25T16:11:37.339Z,5.60
2018-11-25T16:14:07.722Z,5.60
2018-11-25T16:16:50.585Z,5.50
2018-11-25T16:19:19.015Z,5.50
2018-11-25T16:21:49.431Z,5.50
2018-11-25T16:24:22.072Z,5.50
2018-11-25T16:26:50.544Z,5.50
2018-11-25T16:29:26.049Z,5.50
2018-11-25T16:31:59.469Z,5.50
2018-11-25T16:34:48.013Z,5.50
2018-11-25T16:37:18.912Z,5.50
2018-11-25T16:39:50.429Z,5.50
2018-11-25T16:42:18.865Z,5.40
2018-11-25T16:44:49.296Z,5.50
2018-11-25T16:47:21.745Z,5.40
2018-11-25T16:50:01.344Z,5.50
2018-11-25T16:52:44.123Z,5.50
2018-11-25T16:55:13.500Z,5.50
2018-11-25T16:57:45.813Z,5.50
2018-11-25T17:00:21.116Z,5.40
2018-11-25T17:02:49.536Z,5.40
2018-11-25T17:05:23.340Z,5.50
2018-11-25T17:08:00.627Z,5.40
2018-11-25T17:10:42.300Z,5.50
2018-11-25T17:13:14.672Z,5.50
2018-11-25T17:15:43.048Z,5.50
2018-11-25T17:18:21.827Z,5.60
2018-11-25T17:20:56.819Z,5.60
2018-11-25T17:23:25.168Z,5.60
2018-11-25T17:25:59.696Z,5.60
2018-11-25T17:28:32.910Z,5.70
2018-11-25T17:31:02.242Z,5.60
2018-11-25T17:33:30.610Z,5.60
2018-11-25T17:35:58.906Z,5.60
2018-11-25T17:38:27.331Z,5.70
2018-11-25T17:40:57.882Z,5.70
2018-11-25T17:43:32.769Z,5.70
2018-11-25T17:46:01.202Z,5.80
2018-11-25T17:48:36.153Z,5.80
2018-11-25T17:51:16.981Z,5.80
2018-11-25T17:53:59.141Z,5.80
2018-11-25T17:56:28.465Z,5.80
2018-11-25T17:58:56.950Z,5.80
2018-11-25T18:01:25.348Z,5.90
2018-11-25T18:03:54.730Z,5.90
2018-11-25T18:06:24.137Z,5.90
2018-11-25T18:08:54.445Z,6.00
2018-11-25T18:11:22.846Z,6.00
2018-11-25T18:13:53.166Z,6.00
2018-11-25T18:16:32.321Z,6.00
2018-11-25T18:19:13.869Z,6.00
2018-11-25T18:21:44.197Z,6.10
2018-11-25T18:24:13.518Z,6.10
2018-11-25T18:26:45.925Z,6.10
2018-11-25T18:29:18.292Z,6.10
2018-11-25T18:31:50.983Z,6.20
2018-11-25T18:34:24.352Z,6.20
2018-11-25T18:36:56.745Z,6.20
2018-11-25T18:39:30.075Z,6.20
2018-11-25T18:41:58.492Z,6.30
2018-11-25T18:44:30.808Z,6.30
2018-11-25T18:46:59.145Z,6.30
2018-11-25T18:49:34.679Z,6.30
2018-11-25T18:52:05.540Z,6.30
2018-11-25T18:54:33.805Z,6.30
2018-11-25T18:57:19.753Z,6.30
2018-11-25T18:59:49.251Z,6.30
2018-11-25T19:02:22.221Z,6.30
2018-11-25T19:07:42.202Z,6.30
2018-11-25T19:10:17.671Z,6.30
2018-11-25T19:15:39.001Z,6.30
2018-11-25T19:18:08.738Z,6.30
2018-11-25T19:20:37.173Z,6.30
2018-11-25T19:23:07.726Z,6.30
2018-11-25T19:25:37.164Z,6.30
2018-11-25T19:28:08.071Z,6.30
2018-11-25T19:30:40.388Z,6.30
2018-11-25T19:33:09.989Z,6.30
2018-11-25T19:35:38.460Z,6.30
2018-11-25T19:38:08.745Z,6.20
2018-11-25T19:40:44.706Z,6.20
2018-11-25T19:43:18.701Z,6.20
2018-11-25T19:45:48.129Z,6.20
2018-11-25T19:48:16.552Z,6.30
2018-11-25T19:50:45.989Z,6.30
2018-11-25T19:53:18.260Z,6.30
2018-11-25T19:55:53.028Z,6.30
2018-11-25T19:58:21.455Z,6.20
2018-11-25T20:00:53.845Z,6.20
2018-11-25T20:03:26.338Z,6.20
2018-11-25T20:06:01.288Z,6.20
2018-11-25T20:08:29.781Z,6.20
2018-11-25T20:10:58.185Z,6.20
2018-11-25T20:13:26.639Z,6.30
2018-11-25T20:16:04.195Z,6.30
2018-11-25T20:18:45.784Z,6.30
2018-11-25T20:21:20.724Z,6.30
2018-11-25T20:23:49.058Z,6.30
2018-11-25T20:26:19.453Z,6.30
2018-11-25T20:28:47.943Z,6.30
2018-11-25T20:31:16.345Z,6.30
2018-11-25T20:33:53.404Z,6.30
2018-11-25T20:36:25.898Z,6.30
2018-11-25T20:39:03.640Z,6.30
2018-11-25T20:41:33.064Z,6.30
2018-11-25T20:44:01.654Z,6.30
2018-11-25T20:46:39.277Z,6.30
2018-11-25T20:49:14.206Z,6.30
2018-11-25T20:51:47.932Z,6.30
2018-11-25T20:54:16.322Z,6.30
2018-11-25T20:56:46.592Z,6.40
2018-11-25T20:59:21.265Z,6.40
2018-11-25T21:01:49.609Z,6.40
2018-11-25T21:04:18.059Z,6.40
2018-11-25T21:06:48.493Z,6.40
2018-11-25T21:09:16.931Z,6.50
2018-11-25T21:11:50.105Z,6.50
2018-11-25T21:14:20.444Z,6.50
2018-11-25T21:16:48.938Z,6.50
2018-11-25T21:19:19.463Z,6.50
2018-11-25T21:21:51.745Z,6.50
2018-11-25T21:24:27.760Z,6.50
2018-11-25T21:26:56.203Z,6.40
2018-11-25T21:29:26.611Z,6.50
2018-11-25T21:31:56.994Z,6.50
2018-11-25T21:34:25.446Z,6.50
2018-11-25T21:36:53.776Z,6.50
2018-11-25T21:39:22.149Z,6.50
2018-11-25T21:41:50.536Z,6.50
2018-11-25T21:44:19.110Z,6.50
2018-11-25T21:46:47.634Z,6.50
2018-11-25T21:49:16.047Z,6.50
2018-11-25T21:51:44.441Z,6.50
2018-11-25T21:54:13.098Z,6.50
2018-11-25T21:56:41.537Z,6.50
2018-11-25T21:59:09.996Z,6.50
2018-11-25T22:01:38.430Z,6.50
2018-11-25T22:04:07.835Z,6.50
2018-11-25T22:06:36.275Z,6.50
2018-11-25T22:09:08.409Z,6.50
2018-11-25T22:11:36.934Z,6.50
2018-11-25T22:14:05.674Z,6.50
2018-11-25T22:16:34.156Z,6.50
2018-11-25T22:19:02.596Z,6.50
2018-11-25T22:21:31.026Z,6.50
2018-11-25T22:23:59.492Z,6.50
2018-11-25T22:26:28.000Z,6.50
2018-11-25T22:28:56.438Z,6.40
2018-11-25T22:31:24.872Z,6.50
2018-11-25T22:33:53.241Z,6.50
2018-11-25T22:36:21.806Z,6.40
2018-11-25T22:38:51.988Z,6.40
2018-11-25T22:41:20.390Z,6.40
2018-11-25T22:43:48.872Z,6.40
2018-11-25T22:46:17.308Z,6.40
2018-11-25T22:48:45.669Z,6.40
2018-11-25T22:51:14.075Z,6.30
2018-11-25T22:53:42.700Z,6.30
2018-11-25T22:56:11.218Z,6.30
2018-11-25T22:58:39.623Z,6.30
2018-11-25T23:01:08.009Z,6.30
2018-11-25T23:03:36.394Z,6.30
2018-11-25T23:06:15.998Z,6.30
2018-11-25T23:08:44.282Z,6.20
2018-11-25T23:11:12.705Z,6.20
2018-11-25T23:13:41.059Z,6.30
2018-11-25T23:16:09.440Z,6.30
2018-11-25T23:18:37.795Z,6.30
2018-11-25T23:21:06.222Z,6.30
2018-11-25T23:23:34.742Z,6.30
2018-11-25T23:26:03.284Z,6.30
2018-11-25T23:28:31.723Z,6.20
2018-11-25T23:31:00.210Z,6.20
2018-11-25T23:33:28.554Z,6.20
2018-11-25T23:35:57.484Z,6.20
2018-11-25T23:38:25.896Z,6.20
2018-11-25T23:40:54.226Z,6.20
2018-11-25T23:43:22.601Z,6.10
2018-11-25T23:45:51.071Z,5.90
2018-11-25T23:48:19.451Z,6.00
2018-11-25T23:50:47.883Z,6.00
2018-11-25T23:53:16.214Z,5.90
2018-11-25T23:55:44.612Z,5.90
2018-11-25T23:58:12.939Z,6.00
